Time;durP1;ratioP1;P1;durP2;ratioP2;P2;SDS_P1;SDS_P2;PMS_P1;PMS_P2;Temp;Humidity;BMP_temperature;BMP_pressure;BME280_temperature;BME280_humidity;BME280_pressure;Samples;Min_cycle;Max_cycle;Signal;HPM_P1;HPM_P2
2023/09/25 00:00:49;;;;;;;;;;;11.70;82.00;;;;;;5039306;28;19925;-68
2023/09/25 00:03:22;;;;;;;;;;;11.70;82.00;;;;;;5038458;28;19937;-69
2023/09/25 00:05:55;;;;;;;;;;;11.60;82.00;;;;;;5035607;28;19931;-68
2023/09/25 00:08:29;;;;;;;;;;;11.60;82.00;;;;;;5037446;28;19925;-68
2023/09/25 00:11:03;;;;;;;;;;;11.60;82.10;;;;;;5037604;28;19929;-68
2023/09/25 00:13:47;;;;;;;;;;;11.50;82.00;;;;;;5036620;28;19939;-68
2023/09/25 00:16:20;;;;;;;;;;;11.50;82.10;;;;;;5038472;28;20308;-68
2023/09/25 00:18:53;;;;;;;;;;;11.50;82.10;;;;;;5036922;28;20376;-68
2023/09/25 00:21:26;;;;;;;;;;;11.40;82.10;;;;;;5037239;28;20016;-67
2023/09/25 00:23:53;;;;;;;;;;;11.40;82.10;;;;;;5037333;28;19929;-69
2023/09/25 00:26:26;;;;;;;;;;;11.40;82.10;;;;;;5037220;28;19924;-69
2023/09/25 00:29:00;;;;;;;;;;;11.40;82.00;;;;;;5037141;28;19929;-68
2023/09/25 00:31:34;;;;;;;;;;;11.40;82.20;;;;;;5038585;28;19928;-68
2023/09/25 00:34:07;;;;;;;;;;;11.30;82.20;;;;;;5038636;28;20304;-74
2023/09/25 00:36:40;;;;;;;;;;;11.30;82.20;;;;;;5039938;28;20032;-74
2023/09/25 00:39:13;;;;;;;;;;;11.30;82.00;;;;;;5038346;28;19939;-73
2023/09/25 00:41:46;;;;;;;;;;;11.30;82.10;;;;;;5038253;28;19926;-73
2023/09/25 00:44:22;;;;;;;;;;;11.20;82.10;;;;;;5034809;28;19937;-72
2023/09/25 00:47:01;;;;;;;;;;;11.20;82.10;;;;;;5035314;28;20300;-73
2023/09/25 00:49:36;;;;;;;;;;;11.20;82.10;;;;;;5039024;28;19929;-73
2023/09/25 00:52:09;;;;;;;;;;;11.20;82.00;;;;;;5042993;28;19952;-72
2023/09/25 00:54:43;;;;;;;;;;;11.20;81.80;;;;;;5048049;28;19933;-74
2023/09/25 00:57:17;;;;;;;;;;;11.20;82.00;;;;;;5046186;28;19925;-73
2023/09/25 00:59:53;;;;;;;;;;;11.20;82.00;;;;;;5041629;28;19944;-73
2023/09/25 01:02:26;;;;;;;;;;;11.20;81.90;;;;;;5038835;28;19928;-72
2023/09/25 01:04:59;;;;;;;;;;;11.10;82.00;;;;;;5042018;28;19929;-74
2023/09/25 01:07:33;;;;;;;;;;;11.10;82.00;;;;;;5055508;28;19925;-74
2023/09/25 01:10:07;;;;;;;;;;;11.10;81.80;;;;;;5040473;28;20389;-73
2023/09/25 01:12:34;;;;;;;;;;;11.10;81.70;;;;;;5038540;28;19979;-72
2023/09/25 01:15:09;;;;;;;;;;;11.10;81.90;;;;;;5039998;28;19963;-73
2023/09/25 01:17:42;;;;;;;;;;;11.10;81.90;;;;;;5037709;28;19978;-73
2023/09/25 01:20:17;;;;;;;;;;;11.10;81.80;;;;;;5042592;28;19983;-73
2023/09/25 01:22:51;;;;;;;;;;;11.10;81.90;;;;;;5040392;28;19929;-74
2023/09/25 01:25:25;;;;;;;;;;;11.00;82.10;;;;;;5039726;28;19929;-74
2023/09/25 01:27:58;;;;;;;;;;;11.00;82.10;;;;;;5038321;28;20024;-72
2023/09/25 01:30:31;;;;;;;;;;;11.00;82.10;;;;;;5039907;28;19935;-72
2023/09/25 01:33:04;;;;;;;;;;;10.90;82.20;;;;;;5039268;28;20044;-72
2023/09/25 01:35:37;;;;;;;;;;;10.90;82.20;;;;;;5041907;28;20323;-73
2023/09/25 01:38:12;;;;;;;;;;;10.90;82.00;;;;;;5039610;28;20399;-74
2023/09/25 01:40:38;;;;;;;;;;;10.90;81.90;;;;;;5041678;28;19986;-74
2023/09/25 01:43:18;;;;;;;;;;;10.90;81.90;;;;;;5037401;28;20027;-68
2023/09/25 01:45:51;;;;;;;;;;;10.90;81.80;;;;;;5039458;28;19929;-67
2023/09/25 01:48:25;;;;;;;;;;;10.90;81.80;;;;;;5040150;28;19948;-68
2023/09/25 01:50:58;;;;;;;;;;;10.80;81.90;;;;;;5041250;28;19929;-68
2023/09/25 01:53:34;;;;;;;;;;;10.80;81.80;;;;;;5038666;28;20331;-68
2023/09/25 01:56:11;;;;;;;;;;;10.80;81.80;;;;;;5037519;28;19928;-68
2023/09/25 01:58:44;;;;;;;;;;;10.80;81.80;;;;;;5039218;28;19925;-68
2023/09/25 02:01:11;;;;;;;;;;;10.80;81.50;;;;;;5037459;28;19940;-68
2023/09/25 02:03:45;;;;;;;;;;;10.80;81.50;;;;;;5041034;28;19929;-68
2023/09/25 02:06:18;;;;;;;;;;;10.70;81.70;;;;;;5044195;28;20024;-68
2023/09/25 02:08:52;;;;;;;;;;;10.80;81.70;;;;;;5036776;28;20052;-67
2023/09/25 02:11:26;;;;;;;;;;;10.80;81.70;;;;;;5036854;28;19925;-69
2023/09/25 02:13:59;;;;;;;;;;;10.80;81.70;;;;;;5037770;28;20044;-68
2023/09/25 02:16:26;;;;;;;;;;;10.70;81.80;;;;;;5035376;28;19936;-69
2023/09/25 02:18:59;;;;;;;;;;;10.60;81.90;;;;;;5035190;28;19932;-68
2023/09/25 02:21:33;;;;;;;;;;;10.60;81.80;;;;;;5040195;28;19940;-69
2023/09/25 02:24:08;;;;;;;;;;;10.60;81.90;;;;;;5038046;28;20319;-67
2023/09/25 02:26:41;;;;;;;;;;;10.60;82.00;;;;;;5037084;28;20029;-68
2023/09/25 02:29:15;;;;;;;;;;;10.60;82.00;;;;;;5039398;28;19925;-68
2023/09/25 02:31:49;;;;;;;;;;;10.50;82.00;;;;;;5033101;28;19943;-68
2023/09/25 02:34:22;;;;;;;;;;;10.50;82.00;;;;;;5036001;28;19933;-68
2023/09/25 02:36:55;;;;;;;;;;;10.40;82.00;;;;;;5037706;28;19943;-68
2023/09/25 02:39:29;;;;;;;;;;;10.50;82.00;;;;;;5035202;28;20026;-69
2023/09/25 02:42:03;;;;;;;;;;;10.50;81.70;;;;;;5036999;28;19932;-68
2023/09/25 02:44:43;;;;;;;;;;;10.40;81.80;;;;;;5036063;28;20384;-68
2023/09/25 02:47:16;;;;;;;;;;;10.40;81.80;;;;;;5038364;28;19987;-69
2023/09/25 02:49:56;;;;;;;;;;;10.40;81.90;;;;;;5032671;28;19956;-69
2023/09/25 02:52:29;;;;;;;;;;;10.40;81.70;;;;;;5038980;28;20378;-68
2023/09/25 02:55:04;;;;;;;;;;;10.50;81.50;;;;;;5039770;28;20378;-64
2023/09/25 02:57:37;;;;;;;;;;;10.50;81.50;;;;;;5041550;28;19993;-65
2023/09/25 03:00:11;;;;;;;;;;;10.40;81.80;;;;;;5040935;28;20040;-64
2023/09/25 03:02:44;;;;;;;;;;;10.40;82.00;;;;;;5038315;28;20012;-64
2023/09/25 03:05:17;;;;;;;;;;;10.40;82.10;;;;;;5046961;28;20006;-64
2023/09/25 03:07:50;;;;;;;;;;;10.40;82.00;;;;;;5035459;28;22631;-64
2023/09/25 03:10:25;;;;;;;;;;;10.40;82.10;;;;;;5039306;28;19933;-66
2023/09/25 03:12:58;;;;;;;;;;;10.40;82.20;;;;;;5045941;28;19933;-64
2023/09/25 03:15:31;;;;;;;;;;;10.40;82.20;;;;;;5030679;28;20555;-64
2023/09/25 03:18:05;;;;;;;;;;;10.40;82.30;;;;;;5038506;28;19968;-63
2023/09/25 03:20:39;;;;;;;;;;;10.40;82.40;;;;;;5038574;28;20291;-63
2023/09/25 03:23:05;;;;;;;;;;;10.40;82.30;;;;;;5037835;28;20023;-64
2023/09/25 03:25:40;;;;;;;;;;;10.20;82.40;;;;;;5040274;28;20019;-64
2023/09/25 03:28:13;;;;;;;;;;;10.30;82.30;;;;;;5039521;28;19932;-64
2023/09/25 03:30:48;;;;;;;;;;;10.30;82.40;;;;;;5043002;28;19959;-64
2023/09/25 03:33:27;;;;;;;;;;;10.30;82.10;;;;;;5045092;28;19929;-63
2023/09/25 03:36:00;;;;;;;;;;;10.20;81.70;;;;;;5041760;28;19933;-65
2023/09/25 03:38:34;;;;;;;;;;;10.20;81.90;;;;;;5036207;28;19925;-64
2023/09/25 03:41:08;;;;;;;;;;;10.20;82.00;;;;;;5038491;28;19940;-64
2023/09/25 03:43:41;;;;;;;;;;;10.10;81.90;;;;;;5053987;28;19933;-65
2023/09/25 03:46:14;;;;;;;;;;;10.10;82.10;;;;;;5040271;28;20388;-63
2023/09/25 03:48:50;;;;;;;;;;;10.10;82.00;;;;;;5036670;28;19929;-63
2023/09/25 03:51:23;;;;;;;;;;;10.10;82.00;;;;;;5036500;28;19929;-65
2023/09/25 03:53:56;;;;;;;;;;;10.10;82.20;;;;;;5033923;28;19929;-64
2023/09/25 03:56:32;;;;;;;;;;;10.10;82.20;;;;;;5037600;28;19932;-64
2023/09/25 03:59:05;;;;;;;;;;;10.10;82.40;;;;;;5037013;28;19975;-64
2023/09/25 04:01:45;;;;;;;;;;;10.20;82.20;;;;;;5036896;28;19965;-65
2023/09/25 04:04:18;;;;;;;;;;;10.20;82.20;;;;;;5036131;28;19935;-68
2023/09/25 04:06:51;;;;;;;;;;;10.10;82.40;;;;;;5035867;28;19925;-69
2023/09/25 04:09:24;;;;;;;;;;;10.10;82.70;;;;;;5035787;28;19967;-70
2023/09/25 04:11:59;;;;;;;;;;;10.10;82.90;;;;;;5037683;28;19979;-70
2023/09/25 04:14:35;;;;;;;;;;;10.10;82.90;;;;;;5034559;28;19933;-69
2023/09/25 04:17:08;;;;;;;;;;;10.00;82.90;;;;;;5037374;28;20027;-69
2023/09/25 04:19:41;;;;;;;;;;;10.00;82.80;;;;;;5036658;28;20023;-69
2023/09/25 04:22:14;;;;;;;;;;;10.00;82.80;;;;;;5037078;28;19929;-70
2023/09/25 04:24:47;;;;;;;;;;;10.00;82.80;;;;;;5035219;28;19929;-69
2023/09/25 04:27:15;;;;;;;;;;;10.00;82.70;;;;;;5037875;28;20028;-69
2023/09/25 04:29:48;;;;;;;;;;;10.00;82.60;;;;;;5021328;28;19936;-69
2023/09/25 04:32:21;;;;;;;;;;;10.00;82.70;;;;;;5022797;28;19924;-69
2023/09/25 04:34:54;;;;;;;;;;;9.90;82.90;;;;;;5041641;28;19979;-69
2023/09/25 04:37:27;;;;;;;;;;;10.00;82.70;;;;;;5041323;28;20012;-70
2023/09/25 04:40:00;;;;;;;;;;;9.90;82.70;;;;;;5040606;28;19932;-68
2023/09/25 04:42:35;;;;;;;;;;;9.90;82.70;;;;;;5034042;28;19983;-68
2023/09/25 04:45:01;;;;;;;;;;;9.80;82.70;;;;;;5039824;28;19970;-68
2023/09/25 04:47:34;;;;;;;;;;;9.80;82.80;;;;;;5038278;28;19929;-69
2023/09/25 04:50:08;;;;;;;;;;;9.80;82.60;;;;;;5038401;28;19925;-69
2023/09/25 04:52:42;;;;;;;;;;;9.70;82.70;;;;;;5039351;28;19940;-69
2023/09/25 04:55:15;;;;;;;;;;;9.70;82.70;;;;;;5040338;28;19925;-69
2023/09/25 04:57:50;;;;;;;;;;;9.70;82.60;;;;;;5042739;28;20030;-69
2023/09/25 05:00:24;;;;;;;;;;;9.70;82.70;;;;;;5040211;28;19929;-69
2023/09/25 05:02:57;;;;;;;;;;;9.70;82.70;;;;;;5041246;28;20411;-69
2023/09/25 05:05:30;;;;;;;;;;;9.70;82.50;;;;;;5039151;28;19929;-69
2023/09/25 05:08:04;;;;;;;;;;;9.70;82.60;;;;;;5039715;28;19932;-68
2023/09/25 05:10:37;;;;;;;;;;;9.70;82.40;;;;;;5038964;28;19933;-69
2023/09/25 05:13:12;;;;;;;;;;;9.70;82.40;;;;;;5040474;28;19955;-65
2023/09/25 05:15:39;;;;;;;;;;;9.60;82.20;;;;;;5046860;28;20363;-69
2023/09/25 05:18:11;;;;;;;;;;;9.70;82.50;;;;;;5039780;28;19928;-69
2023/09/25 05:20:44;;;;;;;;;;;9.70;82.40;;;;;;5040307;28;20578;-69
2023/09/25 05:23:11;;;;;;;;;;;9.70;82.60;;;;;;5038937;28;19928;-69
2023/09/25 05:25:44;;;;;;;;;;;9.70;82.60;;;;;;5040463;28;19929;-70
2023/09/25 05:28:19;;;;;;;;;;;9.70;82.70;;;;;;5040202;28;19987;-70
2023/09/25 05:30:53;;;;;;;;;;;9.60;82.80;;;;;;5035669;28;19932;-70
2023/09/25 05:33:26;;;;;;;;;;;9.60;82.90;;;;;;5019560;28;19936;-70
2023/09/25 05:35:59;;;;;;;;;;;9.50;83.00;;;;;;5020390;28;19952;-69
2023/09/25 05:38:32;;;;;;;;;;;9.60;83.20;;;;;;5019093;28;19929;-68
2023/09/25 05:41:05;;;;;;;;;;;9.60;83.10;;;;;;5018295;28;19925;-70
2023/09/25 05:43:41;;;;;;;;;;;9.60;83.10;;;;;;5019043;28;19929;-69
2023/09/25 05:46:14;;;;;;;;;;;9.60;83.00;;;;;;5019918;28;19933;-70
2023/09/25 05:48:47;;;;;;;;;;;9.60;83.10;;;;;;5019587;28;19961;-70
2023/09/25 05:51:20;;;;;;;;;;;9.60;83.20;;;;;;5023568;28;19925;-69
2023/09/25 05:53:53;;;;;;;;;;;9.60;83.20;;;;;;5019331;28;19925;-69
2023/09/25 05:56:28;;;;;;;;;;;9.70;83.00;;;;;;5018694;28;20592;-70
2023/09/25 05:59:03;;;;;;;;;;;9.60;83.10;;;;;;5016796;28;19933;-70
2023/09/25 06:01:36;;;;;;;;;;;9.70;83.10;;;;;;5020101;28;19952;-69
2023/09/25 06:04:09;;;;;;;;;;;9.70;83.00;;;;;;5019288;28;19929;-70
2023/09/25 06:06:42;;;;;;;;;;;9.70;83.00;;;;;;5023919;28;19952;-69
2023/09/25 06:09:16;;;;;;;;;;;9.70;83.10;;;;;;5020270;28;19930;-70
2023/09/25 06:11:49;;;;;;;;;;;9.70;83.20;;;;;;5019889;28;19929;-70
2023/09/25 06:14:24;;;;;;;;;;;9.70;83.10;;;;;;5014326;28;19933;-70
2023/09/25 06:16:59;;;;;;;;;;;9.70;83.10;;;;;;5017426;28;20044;-69
2023/09/25 06:19:32;;;;;;;;;;;9.70;83.20;;;;;;5018743;28;21335;-69
2023/09/25 06:22:05;;;;;;;;;;;9.70;83.10;;;;;;5017548;28;20288;-69
2023/09/25 06:24:38;;;;;;;;;;;9.80;83.20;;;;;;5018101;28;20304;-72
2023/09/25 06:27:11;;;;;;;;;;;9.80;83.40;;;;;;5019626;28;19926;-72
2023/09/25 06:29:46;;;;;;;;;;;9.80;83.50;;;;;;5017950;28;19972;-73
2023/09/25 06:32:20;;;;;;;;;;;9.90;83.70;;;;;;5014332;28;19966;-72
2023/09/25 06:34:53;;;;;;;;;;;10.00;83.70;;;;;;5017088;28;20396;-75
2023/09/25 06:37:26;;;;;;;;;;;10.00;83.80;;;;;;5020404;28;20295;-73
2023/09/25 06:39:59;;;;;;;;;;;10.10;83.70;;;;;;5017171;28;19926;-73
2023/09/25 06:42:32;;;;;;;;;;;10.10;84.00;;;;;;5016509;28;19925;-73
2023/09/25 06:45:08;;;;;;;;;;;10.20;84.00;;;;;;5018740;28;19935;-74
2023/09/25 06:47:42;;;;;;;;;;;10.20;83.90;;;;;;5013199;28;19926;-74
2023/09/25 06:50:16;;;;;;;;;;;10.20;84.30;;;;;;5018796;28;19936;-73
2023/09/25 06:52:49;;;;;;;;;;;10.30;84.80;;;;;;5016848;28;20404;-72
2023/09/25 06:55:22;;;;;;;;;;;10.20;84.60;;;;;;5018530;28;20374;-73
2023/09/25 06:57:55;;;;;;;;;;;10.40;84.70;;;;;;5008875;28;19932;-73
2023/09/25 07:00:30;;;;;;;;;;;10.40;84.40;;;;;;5021852;28;19926;-72
2023/09/25 07:03:03;;;;;;;;;;;10.50;84.90;;;;;;5017812;28;20026;-74
2023/09/25 07:05:36;;;;;;;;;;;10.40;84.70;;;;;;5015905;28;20019;-72
2023/09/25 07:08:09;;;;;;;;;;;10.40;85.20;;;;;;5016852;28;19986;-72
2023/09/25 07:10:45;;;;;;;;;;;10.40;85.80;;;;;;5018870;28;20008;-74
2023/09/25 07:13:17;;;;;;;;;;;10.40;85.90;;;;;;5020140;28;20335;-73
2023/09/25 07:15:52;;;;;;;;;;;10.60;86.10;;;;;;5018216;28;19983;-73
2023/09/25 07:18:25;;;;;;;;;;;10.60;85.80;;;;;;5016376;28;19941;-74
2023/09/25 07:20:58;;;;;;;;;;;10.70;85.50;;;;;;5018606;28;19944;-74
2023/09/25 07:23:32;;;;;;;;;;;10.70;85.50;;;;;;5016386;28;20431;-74
2023/09/25 07:26:07;;;;;;;;;;;10.80;86.20;;;;;;5018785;28;20417;-73
2023/09/25 07:28:40;;;;;;;;;;;11.00;86.60;;;;;;5016136;28;19933;-72
2023/09/25 07:31:20;;;;;;;;;;;11.10;86.50;;;;;;5018871;28;20437;-73
2023/09/25 07:33:55;;;;;;;;;;;11.20;86.50;;;;;;5017323;28;19925;-71
2023/09/25 07:36:29;;;;;;;;;;;11.30;86.90;;;;;;5017617;28;19929;-70
2023/09/25 07:39:02;;;;;;;;;;;11.40;88.00;;;;;;5017590;28;20016;-71
2023/09/25 07:41:34;;;;;;;;;;;11.70;88.00;;;;;;5018481;28;19933;-71
2023/09/25 07:44:11;;;;;;;;;;;11.80;87.90;;;;;;5016772;28;19929;-71
2023/09/25 07:46:47;;;;;;;;;;;12.10;87.60;;;;;;5016443;28;19929;-70
2023/09/25 07:49:20;;;;;;;;;;;12.30;87.60;;;;;;5018162;28;20327;-69
2023/09/25 07:51:53;;;;;;;;;;;12.50;87.40;;;;;;5018468;28;19979;-71
2023/09/25 07:54:26;;;;;;;;;;;12.60;86.80;;;;;;5018661;28;19983;-71
2023/09/25 07:57:00;;;;;;;;;;;12.70;87.20;;;;;;5016160;28;19927;-70
2023/09/25 07:59:33;;;;;;;;;;;12.80;87.30;;;;;;5016606;28;19971;-70
2023/09/25 08:02:08;;;;;;;;;;;12.90;87.80;;;;;;5016950;28;19933;-69
2023/09/25 08:04:41;;;;;;;;;;;13.10;86.90;;;;;;5017338;28;19929;-69
2023/09/25 08:07:18;;;;;;;;;;;13.20;86.30;;;;;;5015877;28;19983;-69
2023/09/25 08:09:55;;;;;;;;;;;13.40;86.70;;;;;;5018169;28;19933;-68
2023/09/25 08:12:29;;;;;;;;;;;;;;;;;;5018198;28;19929;-69
2023/09/25 08:15:03;;;;;;;;;;;13.70;86.00;;;;;;5036555;28;19933;-69
2023/09/25 08:17:37;;;;;;;;;;;13.80;86.00;;;;;;5036372;28;19925;-68
2023/09/25 08:20:18;;;;;;;;;;;13.90;85.30;;;;;;5039459;28;19959;-71
2023/09/25 08:22:52;;;;;;;;;;;14.10;85.80;;;;;;5036495;28;19940;-69
2023/09/25 08:25:28;;;;;;;;;;;14.20;84.70;;;;;;5040926;28;19963;-69
2023/09/25 08:31:00;;;;;;;;;;;14.50;84.00;;;;;;5037896;28;20307;-68
2023/09/25 08:33:35;;;;;;;;;;;14.70;83.10;;;;;;5036026;28;20324;-69
2023/09/25 08:36:09;;;;;;;;;;;14.90;82.20;;;;;;5037760;28;19929;-69
2023/09/25 08:38:42;;;;;;;;;;;15.10;81.00;;;;;;5037752;28;20265;-70
2023/09/25 08:41:15;;;;;;;;;;;15.20;80.90;;;;;;5038493;28;19925;-69
2023/09/25 08:43:49;;;;;;;;;;;15.30;80.80;;;;;;5042254;28;20342;-73
2023/09/25 08:46:48;;;;;;;;;;;15.40;80.40;;;;;;5038781;28;19932;-74
2023/09/25 08:49:23;;;;;;;;;;;15.40;80.10;;;;;;5040720;28;19929;-73
2023/09/25 08:51:57;;;;;;;;;;;15.60;79.80;;;;;;5039494;28;19932;-74
2023/09/25 08:54:24;;;;;;;;;;;15.60;79.90;;;;;;5038487;28;19991;-73
2023/09/25 08:56:57;;;;;;;;;;;15.70;79.20;;;;;;5036304;28;20398;-74
2023/09/25 08:59:31;;;;;;;;;;;15.90;78.50;;;;;;5035781;28;19935;-73
2023/09/25 09:02:06;;;;;;;;;;;16.00;77.70;;;;;;5037312;28;20142;-73
2023/09/25 09:04:41;;;;;;;;;;;16.20;76.50;;;;;;5036477;28;19926;-72
2023/09/25 09:07:18;;;;;;;;;;;16.30;77.10;;;;;;5035948;28;19956;-72
2023/09/25 09:09:51;;;;;;;;;;;16.40;76.40;;;;;;5038240;28;19929;-73
2023/09/25 09:12:24;;;;;;;;;;;16.50;75.60;;;;;;5039419;28;19932;-72
2023/09/25 09:14:57;;;;;;;;;;;16.60;75.80;;;;;;5042674;28;20416;-74
2023/09/25 09:17:33;;;;;;;;;;;16.70;75.70;;;;;;5040560;28;20356;-73
2023/09/25 09:20:10;;;;;;;;;;;16.90;75.60;;;;;;5041483;28;19931;-73
2023/09/25 09:22:49;;;;;;;;;;;17.00;74.40;;;;;;5041457;28;19925;-73
2023/09/25 09:25:24;;;;;;;;;;;17.10;74.20;;;;;;5041359;28;19925;-72
2023/09/25 09:27:58;;;;;;;;;;;17.10;74.00;;;;;;5041111;28;20347;-73
2023/09/25 09:30:31;;;;;;;;;;;17.20;74.00;;;;;;5041130;28;20023;-75
2023/09/25 09:33:07;;;;;;;;;;;17.40;73.90;;;;;;5040022;28;20388;-73
2023/09/25 09:35:43;;;;;;;;;;;17.50;73.60;;;;;;5041680;28;19935;-73
2023/09/25 09:38:17;;;;;;;;;;;17.50;73.50;;;;;;5041438;28;20379;-72
2023/09/25 09:40:51;;;;;;;;;;;17.60;73.00;;;;;;5040877;28;20792;-73
2023/09/25 09:43:25;;;;;;;;;;;17.70;73.00;;;;;;5040049;28;19940;-72
2023/09/25 09:46:03;;;;;;;;;;;17.70;72.20;;;;;;5042214;28;19925;-74
2023/09/25 09:48:40;;;;;;;;;;;17.80;71.60;;;;;;5042200;28;19929;-73
2023/09/25 09:51:17;;;;;;;;;;;17.90;71.80;;;;;;5041897;28;19961;-72
2023/09/25 09:53:44;;;;;;;;;;;18.00;71.70;;;;;;5036984;28;19929;-70
2023/09/25 09:56:18;;;;;;;;;;;18.10;71.40;;;;;;5040853;28;19924;-70
2023/09/25 09:58:51;;;;;;;;;;;18.20;71.20;;;;;;5039780;28;19952;-71
2023/09/25 10:01:25;;;;;;;;;;;18.30;70.80;;;;;;5041203;28;19928;-70
2023/09/25 10:04:00;;;;;;;;;;;18.30;70.30;;;;;;5037838;28;19936;-71
2023/09/25 10:06:43;;;;;;;;;;;18.30;70.10;;;;;;5039610;28;20387;-70
2023/09/25 10:09:18;;;;;;;;;;;18.50;69.80;;;;;;5041281;28;19932;-71
2023/09/25 10:11:54;;;;;;;;;;;18.60;69.60;;;;;;5038058;28;19964;-70
2023/09/25 10:14:37;;;;;;;;;;;18.60;69.60;;;;;;5040432;28;20337;-70
2023/09/25 10:17:11;;;;;;;;;;;18.70;69.10;;;;;;5041486;28;20017;-69
2023/09/25 10:19:52;;;;;;;;;;;18.80;68.30;;;;;;5035268;28;20019;-70
2023/09/25 10:22:29;;;;;;;;;;;18.90;68.10;;;;;;5053835;28;20396;-72
2023/09/25 10:25:05;;;;;;;;;;;19.00;68.40;;;;;;5042138;28;19964;-70
2023/09/25 10:27:38;;;;;;;;;;;19.00;68.30;;;;;;5041156;28;19979;-71
2023/09/25 10:30:14;;;;;;;;;;;19.00;67.30;;;;;;5041721;28;19967;-74
2023/09/25 10:32:50;;;;;;;;;;;19.10;66.50;;;;;;5043040;28;19933;-71
2023/09/25 10:35:36;;;;;;;;;;;19.10;67.10;;;;;;5042878;28;19932;-76
2023/09/25 10:38:12;;;;;;;;;;;19.20;67.20;;;;;;5043086;28;19936;-70
2023/09/25 10:40:46;;;;;;;;;;;19.30;67.20;;;;;;5046404;28;19933;-69
2023/09/25 10:43:20;;;;;;;;;;;19.40;66.30;;;;;;5041555;28;19929;-71
2023/09/25 10:45:54;;;;;;;;;;;19.40;66.50;;;;;;5046545;28;19925;-69
2023/09/25 10:48:28;;;;;;;;;;;19.50;66.30;;;;;;5044724;28;20315;-70
2023/09/25 10:50:55;;;;;;;;;;;19.50;66.30;;;;;;5045774;28;20372;-71
2023/09/25 10:53:30;;;;;;;;;;;19.50;65.80;;;;;;5046898;28;19999;-69
2023/09/25 10:56:04;;;;;;;;;;;19.60;65.60;;;;;;5043398;28;19926;-69
2023/09/25 10:58:37;;;;;;;;;;;19.60;65.30;;;;;;5045272;28;19936;-70
2023/09/25 11:01:09;;;;;;;;;;;19.70;65.10;;;;;;5045241;28;20519;-70
2023/09/25 11:03:42;;;;;;;;;;;19.70;65.00;;;;;;5039626;28;19928;-67
2023/09/25 11:06:16;;;;;;;;;;;19.70;64.60;;;;;;5031023;28;19932;-68
2023/09/25 11:08:56;;;;;;;;;;;19.80;64.70;;;;;;5039041;28;19940;-69
2023/09/25 11:11:30;;;;;;;;;;;19.90;64.20;;;;;;5035197;28;19929;-69
2023/09/25 11:14:03;;;;;;;;;;;19.90;63.60;;;;;;5033687;28;20047;-69
2023/09/25 11:16:37;;;;;;;;;;;20.00;63.30;;;;;;5039249;28;19925;-68
2023/09/25 11:19:11;;;;;;;;;;;20.00;63.70;;;;;;5035837;28;20903;-68
2023/09/25 11:21:45;;;;;;;;;;;20.00;62.20;;;;;;5037483;28;19925;-68
2023/09/25 11:24:20;;;;;;;;;;;20.10;62.30;;;;;;5037231;28;19929;-67
2023/09/25 11:26:54;;;;;;;;;;;20.10;62.50;;;;;;5028450;28;20003;-69
2023/09/25 11:29:30;;;;;;;;;;;20.10;63.20;;;;;;5036017;28;20383;-69
2023/09/25 11:32:04;;;;;;;;;;;20.10;61.60;;;;;;5036734;28;19935;-68
2023/09/25 11:34:39;;;;;;;;;;;20.10;62.20;;;;;;5035942;28;19932;-68
2023/09/25 11:37:18;;;;;;;;;;;20.10;62.60;;;;;;5035147;28;19999;-69
2023/09/25 11:39:52;;;;;;;;;;;20.10;62.40;;;;;;5034844;28;20624;-69
2023/09/25 11:42:25;;;;;;;;;;;20.10;63.10;;;;;;5038171;28;20303;-69
2023/09/25 11:45:05;;;;;;;;;;;20.10;61.40;;;;;;5039864;28;19936;-68
2023/09/25 11:47:38;;;;;;;;;;;20.10;61.40;;;;;;5035497;28;19925;-67
2023/09/25 11:50:13;;;;;;;;;;;20.10;62.70;;;;;;5035763;28;20402;-68
2023/09/25 11:52:47;;;;;;;;;;;20.10;61.80;;;;;;5038095;28;19929;-68
2023/09/25 11:55:22;;;;;;;;;;;20.10;61.90;;;;;;5029687;28;20296;-67
2023/09/25 11:57:58;;;;;;;;;;;20.10;61.80;;;;;;5038206;28;20455;-67
2023/09/25 12:00:31;;;;;;;;;;;20.00;61.50;;;;;;5033601;28;20016;-68
2023/09/25 12:03:07;;;;;;;;;;;20.00;61.70;;;;;;5036828;28;19925;-69
2023/09/25 12:05:43;;;;;;;;;;;20.00;62.20;;;;;;5033269;28;19933;-66
2023/09/25 12:08:17;;;;;;;;;;;20.10;62.70;;;;;;5043018;28;19937;-68
2023/09/25 12:10:56;;;;;;;;;;;20.10;62.80;;;;;;5035923;28;20332;-68
2023/09/25 12:13:32;;;;;;;;;;;20.10;62.50;;;;;;5034527;28;19979;-71
2023/09/25 12:16:06;;;;;;;;;;;20.10;63.00;;;;;;5035095;28;19933;-73
2023/09/25 12:18:44;;;;;;;;;;;20.10;62.10;;;;;;5034248;28;19925;-73
2023/09/25 12:21:20;;;;;;;;;;;20.00;61.30;;;;;;5034133;28;19935;-73
2023/09/25 12:23:53;;;;;;;;;;;20.10;62.30;;;;;;5032591;28;19932;-69
2023/09/25 12:26:28;;;;;;;;;;;20.10;63.10;;;;;;5033665;28;19925;-70
2023/09/25 12:29:04;;;;;;;;;;;20.10;63.10;;;;;;5034274;28;19929;-70
2023/09/25 12:31:37;;;;;;;;;;;20.10;62.10;;;;;;5028009;28;19975;-71
2023/09/25 12:34:10;;;;;;;;;;;20.10;62.70;;;;;;5036939;28;20003;-71
2023/09/25 12:36:43;;;;;;;;;;;20.10;63.70;;;;;;5035094;28;19929;-70
2023/09/25 12:39:17;;;;;;;;;;;20.10;65.20;;;;;;5037278;28;20414;-71
2023/09/25 12:41:52;;;;;;;;;;;20.10;64.40;;;;;;5038203;28;20364;-70
2023/09/25 12:44:32;;;;;;;;;;;20.00;64.80;;;;;;5037606;28;19932;-70
2023/09/25 12:47:05;;;;;;;;;;;20.00;64.80;;;;;;5037625;28;19929;-70
2023/09/25 12:49:39;;;;;;;;;;;20.00;64.90;;;;;;5040393;28;20002;-71
2023/09/25 12:52:11;;;;;;;;;;;19.90;64.00;;;;;;5041662;28;20005;-71
2023/09/25 12:54:45;;;;;;;;;;;19.90;64.70;;;;;;5041607;28;19936;-70
2023/09/25 12:57:13;;;;;;;;;;;19.90;64.40;;;;;;5040249;28;19928;-70
2023/09/25 12:59:47;;;;;;;;;;;19.90;62.00;;;;;;5035879;28;20015;-71
2023/09/25 13:02:20;;;;;;;;;;;19.90;64.60;;;;;;5040454;28;19925;-72
2023/09/25 13:04:53;;;;;;;;;;;19.90;64.20;;;;;;5040401;28;19931;-71
2023/09/25 13:07:26;;;;;;;;;;;19.90;63.60;;;;;;5040706;28;19955;-70
2023/09/25 13:09:59;;;;;;;;;;;19.90;64.50;;;;;;5038973;28;19944;-70
2023/09/25 13:12:34;;;;;;;;;;;19.90;63.80;;;;;;5041116;28;19933;-72
2023/09/25 13:15:08;;;;;;;;;;;19.90;64.20;;;;;;5040624;28;19933;-70
2023/09/25 13:17:41;;;;;;;;;;;19.90;62.40;;;;;;5037126;28;20004;-70
2023/09/25 13:20:15;;;;;;;;;;;19.80;64.50;;;;;;5040912;28;20448;-71
2023/09/25 13:22:48;;;;;;;;;;;19.70;62.80;;;;;;5039535;28;20568;-73
2023/09/25 13:25:22;;;;;;;;;;;19.70;63.50;;;;;;5039471;28;20809;-68
2023/09/25 13:27:58;;;;;;;;;;;19.70;64.70;;;;;;5039477;28;19933;-67
2023/09/25 13:30:31;;;;;;;;;;;19.70;64.00;;;;;;5040784;28;19929;-68
2023/09/25 13:33:05;;;;;;;;;;;19.70;65.10;;;;;;5035604;28;19933;-69
2023/09/25 13:35:37;;;;;;;;;;;19.70;64.80;;;;;;5040502;28;19940;-68
2023/09/25 13:38:10;;;;;;;;;;;19.60;64.10;;;;;;5040848;28;20044;-67
2023/09/25 13:40:44;;;;;;;;;;;19.60;64.00;;;;;;5040353;28;19978;-68
2023/09/25 13:43:18;;;;;;;;;;;19.60;64.40;;;;;;5040044;28;19937;-68
2023/09/25 13:45:51;;;;;;;;;;;19.60;64.60;;;;;;5041161;28;19928;-67
2023/09/25 13:48:25;;;;;;;;;;;19.60;65.70;;;;;;5038924;28;20450;-68
2023/09/25 13:50:59;;;;;;;;;;;19.60;65.20;;;;;;5040101;28;20407;-68
2023/09/25 13:53:32;;;;;;;;;;;19.60;64.90;;;;;;5040086;28;19929;-70
2023/09/25 13:56:05;;;;;;;;;;;19.60;65.70;;;;;;5036773;28;20351;-68
2023/09/25 13:58:40;;;;;;;;;;;19.60;64.70;;;;;;5035605;28;19999;-68
2023/09/25 14:01:14;;;;;;;;;;;19.60;63.40;;;;;;5042401;28;19977;-68
2023/09/25 14:03:46;;;;;;;;;;;19.60;65.00;;;;;;5038639;28;20395;-68
2023/09/25 14:06:19;;;;;;;;;;;19.60;63.90;;;;;;5041225;28;19940;-69
2023/09/25 14:08:53;;;;;;;;;;;19.50;64.40;;;;;;5038911;28;20353;-67
2023/09/25 14:11:25;;;;;;;;;;;19.50;64.50;;;;;;5040596;28;19964;-68
2023/09/25 14:14:00;;;;;;;;;;;19.50;65.60;;;;;;5038648;28;19929;-68
2023/09/25 14:16:33;;;;;;;;;;;19.50;63.80;;;;;;5039955;28;20399;-68
2023/09/25 14:19:06;;;;;;;;;;;19.50;64.00;;;;;;5039935;28;20305;-68
2023/09/25 14:21:33;;;;;;;;;;;19.40;63.80;;;;;;5040105;28;19931;-69
2023/09/25 14:24:07;;;;;;;;;;;19.40;64.60;;;;;;5038944;28;20020;-69
2023/09/25 14:26:41;;;;;;;;;;;19.40;65.00;;;;;;5039409;28;19983;-68
2023/09/25 14:29:16;;;;;;;;;;;19.40;65.60;;;;;;5037524;28;20051;-68
2023/09/25 14:31:49;;;;;;;;;;;19.40;65.50;;;;;;5041825;28;20280;-68
2023/09/25 14:34:23;;;;;;;;;;;19.30;65.00;;;;;;5041072;28;19929;-70
2023/09/25 14:36:55;;;;;;;;;;;19.30;65.10;;;;;;5041437;28;19962;-70
2023/09/25 14:39:30;;;;;;;;;;;19.30;65.90;;;;;;5035992;28;19939;-70
2023/09/25 14:42:04;;;;;;;;;;;19.30;65.60;;;;;;5039454;28;19932;-69
2023/09/25 14:44:45;;;;;;;;;;;19.30;65.40;;;;;;5038574;28;22183;-69
2023/09/25 14:47:20;;;;;;;;;;;19.30;64.60;;;;;;5039704;28;19929;-71
2023/09/25 14:49:53;;;;;;;;;;;19.30;65.50;;;;;;5039432;28;19929;-70
2023/09/25 14:52:28;;;;;;;;;;;19.30;65.00;;;;;;5040241;28;19925;-68
2023/09/25 14:55:02;;;;;;;;;;;19.30;66.00;;;;;;5040559;28;20767;-69
2023/09/25 14:57:37;;;;;;;;;;;19.40;65.40;;;;;;5039119;28;20851;-69
2023/09/25 15:00:12;;;;;;;;;;;19.40;66.10;;;;;;5040082;28;19925;-70